TimeBST,TemperatureF,Dew PointF,Humidity,Sea Level PressureIn,VisibilityMPH,Wind Direction,Wind SpeedMPH,Gust SpeedMPH,PrecipitationIn,Events,Conditions,WindDirDegrees,DateUTC
12:50 AM,56,49,69,30.32,25,SW,5.8,,,,Mostly Cloudy,230,2013-08-19 23:50:00
12:50 AM,55.4,48.2,77,30.30,-9999.0,SW,5.8,-,N/A,,Clear,230,2013-08-19 23:50:00
1:50 AM,55.4,48.2,77,30.30,-9999.0,WSW,3.5,-,N/A,,Clear,240,2013-08-20 00:50:00
2:50 AM,59.0,46.4,63,30.30,-9999.0,SW,2.3,-,N/A,,Clear,230,2013-08-20 01:50:00
3:50 AM,56,48,68,30.34,25,WSW,3.5,,,,Mostly Cloudy,250,2013-08-20 02:50:00
3:50 AM,57.2,48.2,72,30.33,-9999.0,WSW,3.5,-,N/A,,Clear,250,2013-08-20 02:50:00
4:50 AM,55.4,48.2,77,30.33,-9999.0,West,2.3,-,N/A,,Clear,270,2013-08-20 03:50:00
5:50 AM,55.4,48.2,77,30.33,-9999.0,West,2.3,-,N/A,,Clear,260,2013-08-20 04:50:00
6:50 AM,55,50,78,30.35,25,WSW,2.3,,,,Scattered Clouds,240,2013-08-20 05:50:00
6:50 AM,55.4,50.0,82,30.33,-9999.0,WSW,2.3,-,N/A,,Clear,240,2013-08-20 05:50:00
7:50 AM,57.2,50.0,77,30.33,-9999.0,SW,3.5,-,N/A,,Clear,230,2013-08-20 06:50:00
8:50 AM,62.6,50.0,63,30.36,-9999.0,West,3.5,-,N/A,,Clear,260,2013-08-20 07:50:00
9:50 AM,66,48,41,30.36,25,WSW,4.6,,,,Scattered Clouds,240,2013-08-20 08:50:00
9:50 AM,66.2,48.2,52,30.36,-9999.0,WSW,4.6,-,N/A,,Clear,240,2013-08-20 08:50:00
10:50 AM,68.0,46.4,46,30.36,6.2,SW,6.9,-,N/A,,Partly Cloudy,220,2013-08-20 09:50:00
11:50 AM,71.6,44.6,38,30.36,-9999.0,West,8.1,-,N/A,,Clear,260,2013-08-20 10:50:00
12:50 PM,70,45,29,30.35,25,West,5.8,,,,Scattered Clouds,280,2013-08-20 11:50:00
12:50 PM,69.8,44.6,40,30.33,-9999.0,West,5.8,-,N/A,,Clear,280,2013-08-20 11:50:00
1:50 PM,73.4,44.6,36,30.33,-9999.0,WSW,6.9,-,N/A,,Clear,240,2013-08-20 12:50:00
2:50 PM,75.2,46.4,36,30.33,-9999.0,West,6.9,-,N/A,,Clear,260,2013-08-20 13:50:00
3:50 PM,74,44,24,30.32,25,WSW,8.1,,,,Scattered Clouds,240,2013-08-20 14:50:00
3:50 PM,75.2,44.6,34,30.33,-9999.0,WSW,8.1,-,N/A,,Clear,240,2013-08-20 14:50:00
4:50 PM,73.4,44.6,36,30.30,-9999.0,SW,5.8,-,N/A,,Clear,220,2013-08-20 15:50:00
5:50 PM,73.4,44.6,36,30.30,-9999.0,WSW,6.9,-,N/A,,Clear,250,2013-08-20 16:50:00
6:50 PM,69,46,33,30.30,22,South,10.4,,,,Scattered Clouds,190,2013-08-20 17:50:00
6:50 PM,69.8,46.4,43,30.30,-9999.0,South,10.4,-,N/A,,Clear,190,2013-08-20 17:50:00
7:50 PM,66.2,48.2,52,30.30,-9999.0,South,8.1,-,N/A,,Clear,180,2013-08-20 18:50:00
8:50 PM,62.6,50.0,63,30.30,-9999.0,South,5.8,-,N/A,,Clear,170,2013-08-20 19:50:00
9:50 PM,62,51,59,30.32,28,SSE,5.8,,,,Clear,160,2013-08-20 20:50:00
9:50 PM,60.8,51.8,72,30.30,-9999.0,SSE,5.8,-,N/A,,Clear,160,2013-08-20 20:50:00
10:50 PM,60.8,50.0,68,30.30,-9999.0,South,8.1,-,N/A,,Clear,180,2013-08-20 21:50:00
11:50 PM,60.8,50.0,68,30.30,-9999.0,South,5.8,-,N/A,,Clear,190,2013-08-20 22:50:00